createdAt,value
2023-01-26T00:01:34.920Z,23.50
2023-01-26T00:04:02.273Z,19.57
2023-01-26T00:06:29.453Z,17.60
2023-01-26T00:08:57.644Z,25.87
2023-01-26T00:11:27.957Z,20.33
2023-01-26T00:13:58.089Z,21.73
2023-01-26T00:16:27.154Z,20.90
2023-01-26T00:18:54.387Z,16.93
2023-01-26T00:21:24.567Z,16.70
2023-01-26T00:23:52.950Z,22.43
2023-01-26T00:26:24.188Z,24.23
2023-01-26T00:28:52.814Z,22.57
2023-01-26T00:31:27.821Z,18.17
2023-01-26T00:33:56.627Z,15.45
2023-01-26T00:36:24.424Z,18.17
2023-01-26T00:38:51.802Z,16.87
2023-01-26T00:41:37.706Z,16.77
2023-01-26T00:44:05.160Z,14.02
2023-01-26T00:46:32.459Z,14.60
2023-01-26T00:49:03.035Z,17.40
2023-01-26T00:51:30.276Z,15.33
2023-01-26T00:53:57.351Z,14.07
2023-01-26T00:56:27.997Z,14.10
2023-01-26T00:58:55.350Z,18.07
2023-01-26T01:01:22.427Z,17.90
2023-01-26T01:03:52.259Z,19.77
2023-01-26T01:06:19.543Z,17.00
2023-01-26T01:08:46.952Z,16.63
2023-01-26T01:11:14.155Z,14.73
2023-01-26T01:13:41.648Z,14.17
2023-01-26T01:16:12.752Z,15.43
2023-01-26T01:18:40.214Z,15.90
2023-01-26T01:21:17.068Z,20.30
2023-01-26T01:23:44.584Z,15.93
2023-01-26T01:26:12.584Z,14.90
2023-01-26T01:28:41.562Z,16.10
2023-01-26T01:31:15.366Z,18.20
2023-01-26T01:33:43.389Z,19.07
2023-01-26T01:36:16.551Z,18.00
2023-01-26T01:38:45.459Z,19.60
2023-01-26T01:41:14.529Z,18.60
2023-01-26T01:43:42.162Z,22.10
2023-01-26T01:46:23.390Z,21.57
2023-01-26T01:49:01.449Z,22.57
2023-01-26T01:51:34.786Z,17.20
2023-01-26T01:54:15.225Z,16.00
2023-01-26T01:56:49.400Z,17.50
2023-01-26T01:59:20.717Z,20.07
2023-01-26T02:01:50.968Z,18.77
2023-01-26T02:04:21.211Z,25.73
2023-01-26T02:06:57.194Z,17.83
2023-01-26T02:09:51.881Z,18.23
2023-01-26T02:12:24.731Z,23.63
2023-01-26T02:14:53.495Z,22.17
2023-01-26T02:17:20.611Z,20.93
2023-01-26T02:20:41.054Z,22.17
2023-01-26T02:23:26.311Z,22.93
2023-01-26T02:25:53.448Z,21.13
2023-01-26T02:28:27.448Z,21.63
2023-01-26T02:30:56.181Z,24.50
2023-01-26T02:33:32.273Z,21.23
2023-01-26T02:36:00.614Z,21.83
2023-01-26T02:38:42.023Z,19.70
2023-01-26T02:41:34.663Z,25.63
2023-01-26T02:44:04.405Z,25.63
2023-01-26T02:46:31.607Z,25.90
2023-01-26T02:49:17.092Z,23.07
2023-01-26T02:51:44.220Z,20.88
2023-01-26T02:54:31.400Z,23.17
2023-01-26T02:56:58.523Z,22.93
2023-01-26T02:59:25.701Z,20.73
2023-01-26T03:01:55.657Z,23.20
2023-01-26T03:04:22.998Z,22.47
2023-01-26T03:06:50.246Z,21.87
2023-01-26T03:09:17.647Z,22.27
2023-01-26T03:11:44.899Z,26.70
2023-01-26T03:14:13.580Z,29.17
2023-01-26T03:16:41.468Z,27.07
2023-01-26T03:19:31.750Z,24.00
2023-01-26T03:22:19.025Z,26.90
2023-01-26T03:25:05.258Z,27.60
2023-01-26T03:30:12.925Z,27.30
2023-01-26T03:32:41.093Z,24.33
2023-01-26T03:35:15.032Z,25.47
2023-01-26T03:37:45.133Z,26.23
2023-01-26T03:40:31.988Z,27.77
2023-01-26T03:43:18.035Z,27.83
2023-01-26T03:46:03.769Z,26.15
2023-01-26T03:48:49.541Z,29.30
2023-01-26T03:51:35.584Z,30.27
2023-01-26T03:54:21.168Z,31.52
2023-01-26T03:56:48.308Z,29.20
2023-01-26T03:59:16.816Z,29.67
2023-01-26T04:02:06.181Z,28.73
2023-01-26T04:04:51.888Z,29.83
2023-01-26T04:07:40.426Z,31.20
2023-01-26T04:10:08.584Z,35.88
2023-01-26T04:12:35.712Z,33.13
2023-01-26T04:15:21.693Z,38.73
2023-01-26T04:18:07.300Z,35.65
2023-01-26T04:20:53.538Z,31.40
2023-01-26T04:23:21.008Z,33.53
2023-01-26T04:25:49.132Z,33.90
2023-01-26T04:28:16.378Z,41.57
2023-01-26T04:30:43.670Z,33.70
2023-01-26T04:33:11.026Z,38.43
2023-01-26T04:35:38.111Z,32.37
2023-01-26T04:38:05.222Z,31.20
2023-01-26T04:40:32.327Z,33.50
2023-01-26T04:42:59.391Z,38.37
2023-01-26T04:45:26.586Z,37.67
2023-01-26T04:47:53.693Z,32.77
2023-01-26T04:50:20.823Z,33.40
2023-01-26T04:52:48.007Z,35.03
2023-01-26T04:55:15.181Z,36.83
2023-01-26T04:57:42.368Z,38.20
2023-01-26T05:00:12.345Z,42.47
2023-01-26T05:02:40.576Z,35.63
2023-01-26T05:05:08.332Z,32.07
2023-01-26T05:07:35.450Z,36.30
2023-01-26T05:10:02.588Z,37.40
2023-01-26T05:12:36.356Z,37.77
2023-01-26T05:15:03.855Z,43.73
2023-01-26T05:17:31.215Z,36.77
2023-01-26T05:19:58.375Z,39.13
2023-01-26T05:22:25.634Z,37.17
2023-01-26T05:24:52.713Z,35.83
2023-01-26T05:27:22.934Z,35.97
2023-01-26T05:29:51.590Z,34.57
2023-01-26T05:32:19.635Z,39.27
2023-01-26T05:34:46.826Z,35.50
2023-01-26T05:37:15.203Z,42.90
2023-01-26T05:39:42.829Z,38.70
2023-01-26T05:42:12.501Z,40.17
2023-01-26T05:44:40.729Z,40.00
2023-01-26T05:47:08.174Z,39.13
2023-01-26T05:49:35.433Z,38.87
2023-01-26T05:52:02.629Z,42.03
2023-01-26T05:54:29.765Z,45.43
2023-01-26T05:56:57.713Z,41.80
2023-01-26T05:59:24.857Z,38.80
2023-01-26T06:01:51.975Z,42.00
2023-01-26T06:04:22.470Z,44.40
2023-01-26T06:06:49.704Z,45.57
2023-01-26T06:09:16.781Z,45.97
2023-01-26T06:11:43.921Z,45.47
2023-01-26T06:14:11.033Z,45.07
2023-01-26T06:16:38.297Z,38.40
2023-01-26T06:19:11.186Z,36.77
2023-01-26T06:21:38.440Z,42.03
2023-01-26T06:24:06.292Z,36.57
2023-01-26T06:26:33.460Z,40.93
2023-01-26T06:29:00.568Z,43.67
2023-01-26T06:31:29.833Z,41.07
2023-01-26T06:33:57.187Z,42.07
2023-01-26T06:36:24.343Z,37.03
2023-01-26T06:38:54.898Z,32.77
2023-01-26T06:41:23.347Z,35.70
2023-01-26T06:43:50.551Z,43.10
2023-01-26T06:46:18.161Z,41.83
2023-01-26T06:48:45.993Z,39.43
2023-01-26T06:51:16.105Z,42.13
2023-01-26T06:53:53.439Z,38.03
2023-01-26T06:56:22.267Z,42.80
2023-01-26T06:58:49.597Z,42.47
2023-01-26T07:01:23.662Z,45.23
2023-01-26T07:03:55.317Z,47.00
2023-01-26T07:06:22.544Z,42.87
2023-01-26T07:08:49.774Z,41.90
2023-01-26T07:11:17.409Z,45.20
2023-01-26T07:13:44.606Z,44.67
2023-01-26T07:16:14.457Z,48.77
2023-01-26T07:18:48.168Z,57.13
2023-01-26T07:21:18.893Z,53.40
2023-01-26T07:23:46.709Z,51.33
2023-01-26T07:26:14.656Z,46.97
2023-01-26T07:28:41.897Z,48.53
2023-01-26T07:31:11.060Z,58.13
2023-01-26T07:33:38.997Z,62.50
2023-01-26T07:36:06.580Z,52.00
2023-01-26T07:38:37.034Z,63.33
2023-01-26T07:41:11.672Z,45.93
2023-01-26T07:43:39.905Z,48.70
2023-01-26T07:46:07.289Z,50.43
2023-01-26T07:48:34.712Z,60.90
2023-01-26T07:51:04.415Z,50.00
2023-01-26T07:53:34.235Z,47.60
2023-01-26T07:56:09.469Z,55.57
2023-01-26T08:01:13.932Z,60.67
2023-01-26T08:03:42.128Z,64.03
2023-01-26T08:06:12.618Z,56.27
2023-01-26T08:08:41.483Z,53.97
2023-01-26T08:11:12.735Z,52.40
2023-01-26T08:13:40.058Z,52.57
2023-01-26T08:16:12.453Z,55.60
2023-01-26T08:18:45.210Z,53.97
2023-01-26T08:21:15.591Z,68.60
2023-01-26T08:23:43.197Z,66.20
2023-01-26T08:26:13.693Z,68.00
2023-01-26T08:28:41.748Z,62.50
2023-01-26T08:31:19.991Z,66.23
2023-01-26T08:33:50.902Z,62.83
2023-01-26T08:36:22.269Z,63.43
2023-01-26T08:38:51.171Z,55.00
2023-01-26T08:41:18.745Z,66.47
2023-01-26T08:43:46.400Z,66.70
2023-01-26T08:46:16.681Z,63.00
2023-01-26T08:48:43.833Z,63.90
2023-01-26T08:51:11.075Z,70.30
2023-01-26T08:53:38.530Z,62.10
2023-01-26T08:56:09.110Z,57.63
2023-01-26T08:58:36.784Z,71.73
2023-01-26T09:01:11.736Z,74.83
2023-01-26T09:03:39.386Z,74.83
2023-01-26T09:06:08.829Z,64.67
2023-01-26T09:08:36.559Z,65.93
2023-01-26T09:11:07.193Z,77.30
2023-01-26T09:13:34.619Z,65.83
2023-01-26T09:16:07.181Z,70.33
2023-01-26T09:18:34.738Z,79.37
2023-01-26T09:21:07.793Z,75.47
2023-01-26T09:23:36.107Z,70.13
2023-01-26T09:26:03.716Z,61.83
2023-01-26T09:28:30.930Z,67.03
2023-01-26T09:31:02.687Z,69.03
2023-01-26T09:33:29.980Z,72.40
2023-01-26T09:35:57.118Z,69.77
2023-01-26T09:38:24.366Z,73.80
2023-01-26T09:41:03.439Z,70.90
2023-01-26T09:43:43.001Z,84.00
2023-01-26T09:46:18.620Z,69.07
2023-01-26T09:49:08.471Z,71.90
2023-01-26T09:51:39.066Z,65.00
2023-01-26T09:54:30.796Z,65.00
2023-01-26T09:57:02.820Z,73.87
2023-01-26T10:00:00.252Z,70.27
2023-01-26T10:03:14.466Z,73.63
2023-01-26T10:06:04.419Z,63.23
2023-01-26T10:08:31.634Z,82.77
2023-01-26T10:11:07.749Z,73.63
2023-01-26T10:13:35.249Z,75.30
2023-01-26T10:16:10.568Z,82.13
2023-01-26T10:19:02.648Z,68.40
2023-01-26T10:21:38.952Z,74.93
2023-01-26T10:24:12.049Z,76.07
2023-01-26T10:26:43.057Z,78.70
2023-01-26T10:29:18.464Z,69.10
2023-01-26T10:31:46.112Z,74.97
2023-01-26T10:34:27.431Z,66.30
2023-01-26T10:37:21.718Z,74.03
2023-01-26T10:40:04.822Z,65.50
2023-01-26T10:42:35.571Z,71.20
2023-01-26T10:45:07.959Z,67.40
2023-01-26T10:47:35.817Z,65.23
2023-01-26T10:50:25.744Z,67.80
2023-01-26T10:53:05.219Z,69.90
2023-01-26T10:55:36.326Z,69.03
2023-01-26T10:58:03.567Z,68.63
2023-01-26T11:00:34.340Z,72.50
2023-01-26T11:03:19.747Z,67.00
2023-01-26T11:06:05.049Z,72.63
2023-01-26T11:08:33.677Z,71.28
2023-01-26T11:11:01.623Z,70.73
2023-01-26T11:13:28.743Z,68.33
2023-01-26T11:16:22.733Z,75.30
2023-01-26T11:19:08.711Z,76.03
2023-01-26T11:21:58.612Z,68.93
2023-01-26T11:24:33.029Z,67.13
2023-01-26T11:27:47.543Z,74.20
2023-01-26T11:30:40.657Z,75.03
2023-01-26T11:33:44.564Z,70.63
2023-01-26T11:37:02.553Z,65.93
2023-01-26T11:39:41.742Z,67.30
2023-01-26T11:42:17.941Z,74.57
2023-01-26T11:44:56.914Z,62.70
2023-01-26T11:47:42.172Z,70.63
2023-01-26T11:50:30.949Z,66.70
2023-01-26T11:53:35.548Z,62.03
2023-01-26T11:56:14.425Z,66.17
2023-01-26T11:58:58.741Z,60.80
2023-01-26T12:01:33.668Z,67.10
2023-01-26T12:04:00.957Z,71.43
2023-01-26T12:06:42.308Z,67.47
2023-01-26T12:09:33.207Z,69.10
2023-01-26T12:12:19.842Z,68.63
2023-01-26T12:15:11.158Z,75.93
2023-01-26T12:17:59.680Z,63.53
2023-01-26T12:20:45.565Z,62.70
2023-01-26T12:23:21.647Z,62.53
2023-01-26T12:26:07.381Z,65.83
2023-01-26T12:28:45.070Z,52.35
2023-01-26T12:31:27.124Z,59.70
2023-01-26T12:33:56.788Z,67.33
2023-01-26T12:36:32.827Z,54.80
2023-01-26T12:38:59.843Z,59.70
2023-01-26T12:42:04.442Z,64.30
2023-01-26T12:44:38.360Z,58.97
2023-01-26T12:47:37.794Z,61.07
2023-01-26T12:50:25.898Z,52.63
2023-01-26T12:53:07.692Z,59.17
2023-01-26T12:55:49.678Z,54.83
2023-01-26T12:58:33.527Z,55.60
2023-01-26T13:01:14.788Z,57.33
2023-01-26T13:04:09.200Z,53.43
2023-01-26T13:06:36.399Z,57.57
2023-01-26T13:09:23.227Z,67.40
2023-01-26T13:11:59.936Z,65.63
2023-01-26T13:15:00.301Z,58.15
2023-01-26T13:17:27.964Z,60.27
2023-01-26T13:20:00.204Z,52.93
2023-01-26T13:22:27.388Z,54.73
2023-01-26T13:24:59.963Z,55.00
2023-01-26T13:28:15.842Z,54.30
2023-01-26T13:30:47.256Z,60.67
2023-01-26T13:33:19.019Z,59.07
2023-01-26T13:35:46.743Z,58.80
2023-01-26T13:38:34.359Z,58.37
2023-01-26T13:41:07.317Z,55.83
2023-01-26T13:43:44.449Z,56.10
2023-01-26T13:46:34.967Z,57.07
2023-01-26T13:49:02.429Z,52.37
2023-01-26T13:51:34.066Z,58.53
2023-01-26T13:54:13.524Z,63.60
2023-01-26T13:57:00.551Z,54.77
2023-01-26T13:59:31.142Z,52.77
2023-01-26T14:01:58.919Z,53.90
2023-01-26T14:04:31.041Z,51.00
2023-01-26T14:07:17.924Z,54.77
2023-01-26T14:09:54.948Z,48.00
2023-01-26T14:12:25.416Z,55.47
2023-01-26T14:14:57.671Z,56.50
2023-01-26T14:17:31.167Z,50.87
2023-01-26T14:20:03.745Z,52.23
2023-01-26T14:22:31.263Z,50.37
2023-01-26T14:24:58.366Z,57.87
2023-01-26T14:27:41.118Z,48.13
2023-01-26T14:30:33.343Z,53.47
2023-01-26T14:33:17.416Z,57.67
2023-01-26T14:36:00.941Z,53.97
2023-01-26T14:38:32.996Z,50.33
2023-01-26T14:41:01.739Z,51.90
2023-01-26T14:43:29.051Z,55.33
2023-01-26T14:46:55.321Z,65.60
2023-01-26T14:49:45.872Z,55.03
2023-01-26T14:52:31.068Z,53.33
2023-01-26T14:55:03.777Z,58.90
2023-01-26T14:57:31.978Z,56.80
2023-01-26T15:00:02.605Z,60.53
2023-01-26T15:02:44.825Z,56.73
2023-01-26T15:05:19.227Z,57.70
2023-01-26T15:08:02.266Z,53.80
2023-01-26T15:10:52.947Z,57.23
2023-01-26T15:13:24.327Z,58.57
2023-01-26T15:16:16.431Z,61.50
2023-01-26T15:18:44.071Z,56.67
2023-01-26T15:21:16.044Z,56.60
2023-01-26T15:23:49.136Z,58.33
2023-01-26T15:26:28.557Z,57.83
2023-01-26T15:28:59.178Z,55.43
2023-01-26T15:31:39.930Z,57.60
2023-01-26T15:34:45.984Z,57.53
2023-01-26T15:37:34.891Z,47.73
2023-01-26T15:40:02.361Z,47.47
2023-01-26T15:42:31.153Z,54.40
2023-01-26T15:44:58.489Z,53.03
2023-01-26T15:47:26.180Z,54.50
2023-01-26T15:49:53.569Z,57.73
2023-01-26T15:52:25.667Z,54.67
2023-01-26T15:54:53.986Z,55.57
2023-01-26T15:57:21.253Z,56.73
2023-01-26T15:59:48.445Z,50.37
2023-01-26T16:02:19.617Z,50.20
2023-01-26T16:04:47.344Z,58.13
2023-01-26T16:07:17.188Z,55.80
2023-01-26T16:09:44.791Z,56.83
2023-01-26T16:12:33.265Z,55.97
2023-01-26T16:15:32.096Z,59.63
2023-01-26T16:17:59.355Z,53.50
2023-01-26T16:20:26.678Z,58.33
2023-01-26T16:22:53.932Z,49.70
2023-01-26T16:25:29.974Z,63.43
2023-01-26T16:27:59.265Z,60.73
2023-01-26T16:30:27.244Z,65.00
2023-01-26T16:32:56.975Z,54.43
2023-01-26T16:35:25.664Z,58.40
2023-01-26T16:37:53.119Z,60.07
2023-01-26T16:40:20.472Z,57.13
2023-01-26T16:42:52.419Z,58.23
2023-01-26T16:45:26.845Z,55.50
2023-01-26T16:47:56.642Z,61.03
2023-01-26T16:50:25.783Z,50.70
2023-01-26T16:52:53.565Z,52.00
2023-01-26T16:55:21.005Z,54.03
2023-01-26T16:57:50.991Z,53.30
2023-01-26T17:00:21.698Z,49.27
2023-01-26T17:02:52.727Z,47.63
2023-01-26T17:05:22.132Z,45.43
2023-01-26T17:07:51.343Z,47.10
2023-01-26T17:10:22.112Z,42.67
2023-01-26T17:12:49.386Z,42.77
2023-01-26T17:15:17.101Z,47.07
2023-01-26T17:17:46.038Z,47.17
2023-01-26T17:20:19.351Z,45.37
2023-01-26T17:22:48.571Z,43.73
2023-01-26T17:25:17.881Z,50.00
2023-01-26T17:27:46.593Z,42.67
2023-01-26T17:30:14.419Z,46.07
2023-01-26T17:32:42.962Z,41.17
2023-01-26T17:35:11.092Z,39.57
2023-01-26T17:37:39.791Z,46.27
2023-01-26T17:40:10.033Z,38.93
2023-01-26T17:42:37.740Z,37.60
2023-01-26T17:45:08.107Z,43.83
2023-01-26T17:47:35.644Z,41.30
2023-01-26T17:50:03.071Z,45.67
2023-01-26T17:52:35.402Z,42.60
2023-01-26T17:55:05.421Z,44.40
2023-01-26T17:57:34.509Z,44.43
2023-01-26T18:00:01.916Z,45.90
2023-01-26T18:02:29.735Z,47.53
2023-01-26T18:04:57.277Z,50.20
2023-01-26T18:07:25.693Z,48.57
2023-01-26T18:09:54.920Z,48.77
2023-01-26T18:12:27.296Z,46.90
2023-01-26T18:14:55.313Z,51.47
2023-01-26T18:17:26.123Z,51.77
2023-01-26T18:19:54.157Z,47.67
2023-01-26T18:22:22.103Z,51.13
2023-01-26T18:24:49.692Z,52.77
2023-01-26T18:27:18.912Z,48.20
2023-01-26T18:29:49.925Z,47.30
2023-01-26T18:32:18.007Z,56.17
2023-01-26T18:34:45.897Z,52.33
2023-01-26T18:37:13.821Z,47.70
2023-01-26T18:39:42.116Z,50.97
2023-01-26T18:42:10.692Z,51.90
2023-01-26T18:44:38.426Z,52.53
2023-01-26T18:47:06.445Z,48.30
2023-01-26T18:49:34.540Z,55.93
2023-01-26T18:52:05.103Z,52.50
2023-01-26T18:54:34.726Z,57.33
2023-01-26T18:57:05.023Z,53.87
2023-01-26T18:59:33.377Z,57.47
2023-01-26T19:02:01.626Z,57.93
2023-01-26T19:04:30.355Z,53.63
2023-01-26T19:07:00.701Z,59.80
2023-01-26T19:09:35.046Z,49.43
2023-01-26T19:12:04.797Z,63.60
2023-01-26T19:14:33.472Z,50.87
2023-01-26T19:17:03.016Z,50.73
2023-01-26T19:19:32.445Z,48.47
2023-01-26T19:22:00.884Z,48.27
2023-01-26T19:24:28.660Z,43.77
2023-01-26T19:26:59.881Z,48.83
2023-01-26T19:29:28.351Z,45.10
2023-01-26T19:31:56.340Z,47.70
2023-01-26T19:34:24.972Z,44.97
2023-01-26T19:36:55.518Z,41.57
2023-01-26T19:39:23.782Z,40.07
2023-01-26T19:41:53.251Z,49.27
2023-01-26T19:44:21.019Z,51.80
2023-01-26T19:46:53.189Z,50.07
2023-01-26T19:49:23.187Z,53.50
2023-01-26T19:51:53.645Z,47.40
2023-01-26T19:54:21.575Z,44.73
2023-01-26T19:56:57.056Z,38.63
2023-01-26T19:59:26.505Z,45.30
2023-01-26T20:01:54.887Z,50.83
2023-01-26T20:04:24.696Z,51.27
2023-01-26T20:06:53.118Z,41.97
2023-01-26T20:09:20.812Z,46.57
2023-01-26T20:11:50.245Z,39.63
2023-01-26T20:14:21.338Z,46.40
2023-01-26T20:16:49.398Z,43.57
2023-01-26T20:19:17.315Z,43.80
2023-01-26T20:21:45.994Z,40.30
2023-01-26T20:24:18.190Z,41.90
2023-01-26T20:26:48.491Z,42.13
2023-01-26T20:29:18.769Z,40.77
2023-01-26T20:31:50.094Z,44.00
2023-01-26T20:34:18.120Z,42.20
2023-01-26T20:36:46.465Z,39.50
2023-01-26T20:39:24.312Z,38.23
2023-01-26T20:41:58.570Z,35.97
2023-01-26T20:44:26.679Z,42.97
2023-01-26T20:46:55.043Z,36.90
2023-01-26T20:49:22.619Z,37.37
2023-01-26T20:51:50.673Z,37.27
2023-01-26T20:54:18.599Z,37.50
2023-01-26T20:56:52.488Z,34.90
2023-01-26T20:59:22.483Z,34.37
2023-01-26T21:01:50.657Z,34.93
2023-01-26T21:04:18.698Z,35.10
2023-01-26T21:06:46.830Z,33.00
2023-01-26T21:09:14.694Z,38.77
2023-01-26T21:11:42.561Z,36.30
2023-01-26T21:14:13.723Z,36.87
2023-01-26T21:16:43.329Z,37.37
2023-01-26T21:19:11.001Z,35.90
2023-01-26T21:21:38.362Z,37.13
2023-01-26T21:24:08.698Z,36.33
2023-01-26T21:26:36.064Z,37.03
2023-01-26T21:29:05.536Z,36.00
2023-01-26T21:31:34.442Z,41.20
2023-01-26T21:34:01.979Z,38.40
2023-01-26T21:36:31.591Z,35.30
2023-01-26T21:39:02.327Z,36.63
2023-01-26T21:41:51.407Z,35.73
2023-01-26T21:44:23.910Z,37.90
2023-01-26T21:46:55.053Z,37.07
2023-01-26T21:49:23.344Z,34.37
2023-01-26T21:52:10.052Z,30.87
2023-01-26T21:54:40.516Z,38.90
2023-01-26T21:57:29.066Z,40.93
2023-01-26T21:59:56.646Z,29.97
2023-01-26T22:02:23.976Z,34.07
2023-01-26T22:04:51.685Z,39.77
2023-01-26T22:07:18.890Z,41.27
2023-01-26T22:09:46.228Z,35.37
2023-01-26T22:12:13.322Z,37.33
2023-01-26T22:14:44.008Z,37.70
2023-01-26T22:17:11.295Z,37.30
2023-01-26T22:19:38.591Z,35.87
2023-01-26T22:22:06.084Z,37.07
2023-01-26T22:24:33.306Z,37.53
2023-01-26T22:27:00.625Z,39.10
2023-01-26T22:29:27.806Z,33.47
2023-01-26T22:31:54.961Z,37.33
2023-01-26T22:34:22.191Z,36.13
2023-01-26T22:36:49.396Z,41.33
2023-01-26T22:39:16.833Z,35.07
2023-01-26T22:41:44.134Z,38.40
2023-01-26T22:44:11.356Z,38.73
2023-01-26T22:46:38.739Z,38.63
2023-01-26T22:49:06.011Z,34.83
2023-01-26T22:51:37.333Z,37.37
2023-01-26T22:54:05.504Z,39.30
2023-01-26T22:56:33.014Z,37.23
2023-01-26T22:59:00.867Z,36.33
2023-01-26T23:01:32.039Z,36.33
2023-01-26T23:04:00.224Z,35.23
2023-01-26T23:06:28.417Z,39.00
2023-01-26T23:08:55.985Z,41.23
2023-01-26T23:11:30.161Z,37.23
2023-01-26T23:13:59.588Z,35.20
2023-01-26T23:16:27.803Z,41.70
2023-01-26T23:18:57.851Z,40.87
2023-01-26T23:21:26.715Z,37.57
2023-01-26T23:23:53.919Z,41.57
2023-01-26T23:26:21.463Z,37.93
2023-01-26T23:28:48.940Z,38.67
2023-01-26T23:31:18.269Z,36.37
2023-01-26T23:33:45.668Z,38.73
2023-01-26T23:36:14.757Z,38.60
2023-01-26T23:38:41.985Z,42.03
2023-01-26T23:41:09.341Z,37.63
2023-01-26T23:43:36.736Z,38.27
2023-01-26T23:46:06.545Z,37.13
2023-01-26T23:48:33.989Z,39.43
2023-01-26T23:51:08.569Z,35.73
2023-01-26T23:53:36.369Z,40.83
2023-01-26T23:56:16.179Z,38.77
2023-01-26T23:58:43.761Z,36.50
